createdAt,value
2018-03-14T00:01:17.964Z,5.20
2018-03-14T00:03:45.856Z,5.40
2018-03-14T00:06:14.513Z,5.50
2018-03-14T00:08:42.173Z,5.60
2018-03-14T00:11:09.733Z,5.60
2018-03-14T00:13:37.261Z,5.60
2018-03-14T00:16:04.807Z,5.60
2018-03-14T00:18:32.337Z,5.70
2018-03-14T00:21:00.655Z,5.90
2018-03-14T00:23:29.254Z,5.70
2018-03-14T00:25:56.916Z,5.70
2018-03-14T00:28:24.428Z,5.70
2018-03-14T00:30:52.388Z,5.90
2018-03-14T00:33:19.916Z,5.80
2018-03-14T00:35:48.360Z,5.80
2018-03-14T00:38:16.044Z,5.80
2018-03-14T00:40:43.593Z,5.80
2018-03-14T00:43:11.441Z,5.80
2018-03-14T00:45:39.743Z,5.70
2018-03-14T00:48:07.277Z,5.60
2018-03-14T00:50:35.698Z,5.70
2018-03-14T00:53:04.013Z,5.30
2018-03-14T00:55:32.305Z,5.30
2018-03-14T00:57:59.850Z,5.30
2018-03-14T01:00:27.378Z,5.40
2018-03-14T01:02:54.936Z,5.40
2018-03-14T01:05:22.462Z,5.40
2018-03-14T01:07:50.781Z,5.40
2018-03-14T01:10:18.316Z,5.40
2018-03-14T01:12:45.872Z,5.50
2018-03-14T01:15:13.685Z,5.40
2018-03-14T01:17:41.559Z,5.30
2018-03-14T01:20:09.096Z,5.30
2018-03-14T01:22:36.656Z,5.30
2018-03-14T01:25:04.214Z,5.20
2018-03-14T01:27:32.077Z,5.10
2018-03-14T01:29:59.600Z,5.20
2018-03-14T01:32:27.176Z,5.20
2018-03-14T01:34:54.700Z,5.10
2018-03-14T01:37:22.220Z,5.10
2018-03-14T01:39:49.793Z,5.30
2018-03-14T01:42:18.084Z,5.30
2018-03-14T01:44:45.641Z,5.30
2018-03-14T01:47:13.464Z,5.40
2018-03-14T01:49:41.017Z,5.40
2018-03-14T01:52:08.548Z,5.60
2018-03-14T01:54:36.428Z,5.70
2018-03-14T01:57:03.949Z,5.90
2018-03-14T01:59:31.517Z,5.60
2018-03-14T02:01:59.308Z,5.60
2018-03-14T02:04:26.860Z,5.70
2018-03-14T02:06:54.397Z,5.80
2018-03-14T02:09:21.957Z,5.80
2018-03-14T02:11:49.505Z,5.80
2018-03-14T02:14:17.048Z,5.80
2018-03-14T02:16:44.849Z,5.90
2018-03-14T02:19:13.161Z,5.70
2018-03-14T02:21:41.457Z,5.70
2018-03-14T02:24:09.005Z,5.70
2018-03-14T02:26:36.537Z,5.70
2018-03-14T02:29:04.068Z,5.50
2018-03-14T02:31:31.620Z,5.50
2018-03-14T02:33:59.150Z,5.60
2018-03-14T02:36:38.364Z,5.50
2018-03-14T02:39:05.896Z,5.70
2018-03-14T02:41:33.445Z,5.70
2018-03-14T02:44:01.754Z,5.60
2018-03-14T02:46:29.296Z,5.60
2018-03-14T02:48:56.832Z,5.70
2018-03-14T02:51:24.425Z,5.60
2018-03-14T02:53:52.945Z,5.80
2018-03-14T02:56:20.509Z,5.70
2018-03-14T02:58:48.785Z,5.60
2018-03-14T03:01:16.322Z,5.60
2018-03-14T03:03:43.840Z,5.70
2018-03-14T03:06:12.156Z,5.70
2018-03-14T03:08:39.665Z,5.70
2018-03-14T03:11:07.942Z,5.70
2018-03-14T03:13:36.241Z,5.70
2018-03-14T03:16:03.750Z,5.70
2018-03-14T03:18:31.290Z,5.70
2018-03-14T03:20:58.818Z,5.80
2018-03-14T03:23:26.360Z,5.80
2018-03-14T03:25:53.872Z,5.80
2018-03-14T03:28:21.713Z,5.70
2018-03-14T03:30:49.989Z,5.50
2018-03-14T03:33:17.560Z,5.50
2018-03-14T03:35:45.068Z,5.60
2018-03-14T03:38:12.872Z,5.50
2018-03-14T03:40:40.720Z,5.50
2018-03-14T03:43:08.484Z,5.50
2018-03-14T03:45:36.000Z,5.50
2018-03-14T03:48:04.298Z,5.50
2018-03-14T03:50:32.601Z,5.40
2018-03-14T03:53:00.136Z,5.40
2018-03-14T03:55:27.652Z,5.40
2018-03-14T03:57:55.968Z,5.40
2018-03-14T04:00:23.477Z,5.30
2018-03-14T04:02:51.752Z,5.30
2018-03-14T04:05:20.054Z,5.30
2018-03-14T04:07:47.568Z,5.30
2018-03-14T04:10:15.122Z,5.30
2018-03-14T04:12:42.629Z,5.30
2018-03-14T04:15:10.165Z,5.30
2018-03-14T04:17:37.673Z,5.40
2018-03-14T04:20:05.225Z,5.40
2018-03-14T04:22:32.738Z,5.50
2018-03-14T04:25:00.273Z,5.60
2018-03-14T04:27:28.556Z,5.70
2018-03-14T04:29:56.873Z,5.60
2018-03-14T04:32:24.386Z,5.60
2018-03-14T04:34:52.692Z,5.60
2018-03-14T04:37:20.464Z,5.60
2018-03-14T04:39:48.080Z,5.50
2018-03-14T04:42:16.605Z,5.40
2018-03-14T04:44:44.116Z,5.40
2018-03-14T04:47:12.412Z,5.50
2018-03-14T04:49:39.932Z,5.60
2018-03-14T04:52:07.467Z,5.50
2018-03-14T04:54:34.997Z,5.40
2018-03-14T04:57:02.533Z,5.40
2018-03-14T04:59:30.044Z,5.40
2018-03-14T05:01:57.576Z,5.40
2018-03-14T05:04:25.111Z,5.30
2018-03-14T05:06:52.650Z,5.40
2018-03-14T05:09:20.160Z,5.30
2018-03-14T05:11:47.696Z,5.20
2018-03-14T05:14:15.203Z,5.10
2018-03-14T05:16:42.748Z,5.10
2018-03-14T05:19:11.041Z,5.50
2018-03-14T05:21:38.580Z,5.50
2018-03-14T05:24:06.860Z,5.50
2018-03-14T05:26:35.157Z,5.50
2018-03-14T05:29:02.944Z,5.50
2018-03-14T05:31:30.493Z,5.50
2018-03-14T05:33:58.006Z,5.40
2018-03-14T05:36:26.304Z,5.40
2018-03-14T05:38:54.093Z,5.40
2018-03-14T05:41:21.600Z,5.50
2018-03-14T05:43:49.900Z,5.20
2018-03-14T05:46:17.456Z,5.20
2018-03-14T05:48:45.240Z,5.00
2018-03-14T05:51:12.751Z,5.00
2018-03-14T05:53:41.063Z,5.20
2018-03-14T05:56:08.574Z,5.20
2018-03-14T05:58:36.877Z,5.30
2018-03-14T06:01:04.665Z,5.30
2018-03-14T06:03:32.197Z,5.30
2018-03-14T06:05:59.712Z,5.40
2018-03-14T06:08:27.248Z,5.20
2018-03-14T06:10:54.759Z,5.10
2018-03-14T06:13:22.299Z,5.00
2018-03-14T06:15:50.588Z,5.20
2018-03-14T06:18:18.391Z,5.20
2018-03-14T06:20:45.929Z,5.10
2018-03-14T06:23:13.462Z,5.30
2018-03-14T06:25:40.969Z,5.30
2018-03-14T06:28:08.813Z,5.30
2018-03-14T06:30:36.362Z,5.20
2018-03-14T06:33:03.888Z,5.30
2018-03-14T06:35:32.185Z,5.30
2018-03-14T06:37:59.919Z,5.20
2018-03-14T06:40:28.542Z,5.20
2018-03-14T06:42:56.072Z,5.20
2018-03-14T06:45:23.604Z,5.30
2018-03-14T06:47:51.900Z,5.40
2018-03-14T06:50:19.687Z,5.40
2018-03-14T06:52:47.216Z,5.40
2018-03-14T06:55:14.748Z,5.50
2018-03-14T06:57:43.042Z,5.70
2018-03-14T07:00:22.343Z,5.70
2018-03-14T07:02:55.776Z,5.70
2018-03-14T07:05:35.305Z,5.80
2018-03-14T07:08:02.817Z,5.70
2018-03-14T07:10:30.357Z,5.80
2018-03-14T07:12:57.876Z,5.80
2018-03-14T07:15:25.434Z,5.90
2018-03-14T07:17:52.968Z,6.00
2018-03-14T07:20:21.500Z,6.00
2018-03-14T07:22:49.008Z,6.00
2018-03-14T07:25:17.319Z,5.80
2018-03-14T07:27:45.276Z,5.80
2018-03-14T07:30:12.860Z,5.90
2018-03-14T07:32:41.522Z,6.20
2018-03-14T07:35:09.241Z,6.20
2018-03-14T07:37:37.364Z,6.30
2018-03-14T07:40:05.052Z,6.40
2018-03-14T07:42:32.606Z,6.50
2018-03-14T07:45:00.112Z,6.50
2018-03-14T07:47:27.658Z,6.60
2018-03-14T07:49:55.933Z,6.70
2018-03-14T07:52:23.735Z,6.70
2018-03-14T07:54:51.244Z,6.70
2018-03-14T07:57:19.540Z,6.80
2018-03-14T07:59:47.048Z,6.70
2018-03-14T08:02:15.373Z,6.70
2018-03-14T08:04:42.905Z,6.70
2018-03-14T08:07:11.212Z,6.90
2018-03-14T08:09:38.724Z,6.90
2018-03-14T08:12:07.041Z,7.10
2018-03-14T08:14:34.569Z,7.10
2018-03-14T08:17:02.888Z,7.20
2018-03-14T08:19:30.410Z,7.20
2018-03-14T08:21:57.916Z,7.20
2018-03-14T08:24:25.546Z,7.30
2018-03-14T08:26:53.295Z,7.30
2018-03-14T08:29:21.897Z,7.30
2018-03-14T08:31:49.404Z,7.30
2018-03-14T08:34:16.946Z,7.20
2018-03-14T08:36:44.481Z,7.20
2018-03-14T08:39:12.016Z,7.00
2018-03-14T08:41:39.783Z,7.00
2018-03-14T08:44:07.311Z,7.20
2018-03-14T08:46:35.109Z,7.30
2018-03-14T08:49:02.636Z,7.10
2018-03-14T08:51:30.157Z,7.30
2018-03-14T08:53:58.453Z,7.60
2018-03-14T08:56:25.974Z,7.60
2018-03-14T08:58:54.292Z,8.00
2018-03-14T09:01:21.804Z,8.00
2018-03-14T09:03:49.329Z,8.00
2018-03-14T09:06:16.876Z,7.90
2018-03-14T09:08:44.394Z,7.90
2018-03-14T09:11:12.701Z,7.80
2018-03-14T09:13:40.216Z,7.80
2018-03-14T09:16:08.517Z,8.10
2018-03-14T09:18:36.059Z,8.10
2018-03-14T09:21:04.360Z,8.10
2018-03-14T09:23:32.136Z,8.10
2018-03-14T09:26:00.001Z,7.90
2018-03-14T09:28:27.512Z,7.90
2018-03-14T09:30:55.819Z,8.00
2018-03-14T09:33:23.349Z,8.00
2018-03-14T09:35:51.671Z,8.20
2018-03-14T09:38:19.422Z,8.10
2018-03-14T09:40:46.956Z,8.20
2018-03-14T09:43:14.506Z,8.10
2018-03-14T09:45:42.036Z,8.20
2018-03-14T09:48:09.553Z,8.40
2018-03-14T09:50:37.098Z,8.60
2018-03-14T09:53:04.632Z,8.50
2018-03-14T09:55:32.410Z,8.50
2018-03-14T09:57:59.944Z,8.40
2018-03-14T10:00:27.478Z,8.40
2018-03-14T10:02:54.985Z,8.30
2018-03-14T10:05:22.524Z,8.50
2018-03-14T10:07:50.034Z,8.40
2018-03-14T10:10:17.576Z,8.30
2018-03-14T10:12:45.108Z,8.40
2018-03-14T10:15:12.645Z,8.40
2018-03-14T10:17:40.226Z,8.50
2018-03-14T10:20:07.736Z,8.60
2018-03-14T10:22:36.052Z,9.40
2018-03-14T10:25:03.570Z,9.40
2018-03-14T10:27:31.122Z,9.30
2018-03-14T10:29:59.405Z,9.20
2018-03-14T10:32:27.704Z,9.10
2018-03-14T10:34:55.225Z,9.10
2018-03-14T10:37:23.534Z,9.30
2018-03-14T10:39:51.060Z,9.20
2018-03-14T10:42:19.693Z,9.00
2018-03-14T10:44:47.206Z,9.00
2018-03-14T10:47:15.513Z,8.90
2018-03-14T10:49:43.275Z,8.90
2018-03-14T10:52:10.808Z,9.20
2018-03-14T10:54:38.554Z,9.00
2018-03-14T10:57:06.853Z,8.60
2018-03-14T10:59:34.364Z,8.60
2018-03-14T11:02:07.593Z,8.60
2018-03-14T11:04:35.110Z,9.10
2018-03-14T11:07:02.680Z,9.40
2018-03-14T11:09:30.977Z,9.50
2018-03-14T11:11:58.509Z,9.50
2018-03-14T11:14:27.008Z,10.90
2018-03-14T11:16:54.549Z,10.90
2018-03-14T11:19:23.093Z,10.70
2018-03-14T11:21:50.641Z,10.70
2018-03-14T11:24:18.153Z,10.70
2018-03-14T11:26:45.685Z,10.30
2018-03-14T11:29:13.969Z,10.40
2018-03-14T11:31:43.877Z,10.00
2018-03-14T11:34:12.995Z,10.10
2018-03-14T11:36:41.265Z,10.10
2018-03-14T11:39:08.786Z,10.20
2018-03-14T11:41:36.921Z,10.40
2018-03-14T11:44:04.901Z,10.80
2018-03-14T11:46:32.873Z,11.10
2018-03-14T11:49:00.437Z,10.80
2018-03-14T11:51:27.973Z,11.00
2018-03-14T11:53:59.878Z,11.40
2018-03-14T11:56:28.188Z,11.80
2018-03-14T11:58:55.706Z,11.80
2018-03-14T12:01:24.124Z,11.30
2018-03-14T12:03:51.729Z,11.30
2018-03-14T12:06:20.379Z,10.70
2018-03-14T12:08:48.007Z,10.80
2018-03-14T12:11:15.541Z,10.60
2018-03-14T12:13:43.821Z,11.20
2018-03-14T12:16:12.156Z,11.30
2018-03-14T12:18:39.727Z,11.30
2018-03-14T12:21:07.497Z,11.60
2018-03-14T12:23:35.400Z,11.40
2018-03-14T12:26:03.681Z,11.40
2018-03-14T12:28:31.203Z,11.40
2018-03-14T12:30:59.506Z,11.00
2018-03-14T12:33:27.045Z,11.00
2018-03-14T12:35:54.564Z,10.80
2018-03-14T12:38:22.113Z,10.80
2018-03-14T12:40:49.634Z,10.70
2018-03-14T12:43:17.172Z,10.80
2018-03-14T12:45:44.697Z,10.90
2018-03-14T12:48:12.257Z,10.90
2018-03-14T12:50:39.774Z,10.90
2018-03-14T12:53:07.321Z,11.10
2018-03-14T12:55:34.841Z,11.50
2018-03-14T12:58:03.468Z,11.90
2018-03-14T13:00:30.975Z,11.90
2018-03-14T13:02:58.566Z,12.00
2018-03-14T13:05:26.344Z,12.40
2018-03-14T13:07:53.886Z,12.30
2018-03-14T13:10:21.402Z,12.20
2018-03-14T13:12:49.725Z,12.40
2018-03-14T13:15:17.258Z,12.40
2018-03-14T13:17:44.813Z,12.60
2018-03-14T13:20:12.341Z,12.80
2018-03-14T13:22:39.908Z,12.90
2018-03-14T13:25:08.184Z,12.30
2018-03-14T13:27:36.484Z,12.30
2018-03-14T13:30:04.035Z,12.30
2018-03-14T13:32:31.598Z,12.40
2018-03-14T13:34:59.189Z,12.60
2018-03-14T13:37:27.042Z,12.70
2018-03-14T13:39:54.573Z,12.80
2018-03-14T13:42:22.117Z,12.60
2018-03-14T13:44:50.411Z,12.30
2018-03-14T13:47:17.997Z,12.30
2018-03-14T13:49:45.533Z,12.10
2018-03-14T13:52:13.082Z,12.30
2018-03-14T13:54:40.601Z,12.20
2018-03-14T13:57:08.944Z,12.20
2018-03-14T13:59:36.500Z,12.10
2018-03-14T14:02:04.074Z,12.00
2018-03-14T14:04:31.609Z,11.60
2018-03-14T14:06:59.144Z,11.60
2018-03-14T14:09:26.677Z,11.90
2018-03-14T14:11:54.220Z,12.30
2018-03-14T14:14:22.504Z,13.00
2018-03-14T14:16:50.829Z,12.90
2018-03-14T14:19:18.396Z,12.90
2018-03-14T14:21:46.236Z,12.70
2018-03-14T14:24:13.749Z,12.70
2018-03-14T14:26:41.661Z,12.20
2018-03-14T14:29:09.233Z,12.30
2018-03-14T14:31:36.792Z,12.30
2018-03-14T14:34:04.306Z,12.40
2018-03-14T14:36:31.869Z,12.30
2018-03-14T14:38:59.379Z,12.10
2018-03-14T14:41:26.960Z,12.10
2018-03-14T14:43:54.501Z,12.00
2018-03-14T14:46:22.779Z,11.60
2018-03-14T14:48:51.093Z,12.10
2018-03-14T14:51:18.616Z,12.10
2018-03-14T14:53:46.921Z,11.90
2018-03-14T14:56:14.458Z,11.90
2018-03-14T14:58:41.990Z,11.90
2018-03-14T15:01:09.557Z,11.70
2018-03-14T15:03:37.857Z,11.50
2018-03-14T15:06:05.377Z,11.50
2018-03-14T15:08:33.682Z,11.60
2018-03-14T15:11:01.208Z,11.60
2018-03-14T15:13:29.512Z,11.50
2018-03-14T15:15:57.077Z,11.50
2018-03-14T15:18:24.617Z,11.10
2018-03-14T15:20:52.138Z,11.00
2018-03-14T15:23:19.685Z,10.80
2018-03-14T15:25:47.192Z,10.90
2018-03-14T15:28:14.734Z,10.80
2018-03-14T15:30:43.037Z,10.70
2018-03-14T15:33:10.589Z,10.70
2018-03-14T15:35:38.136Z,10.70
2018-03-14T15:38:05.690Z,10.70
2018-03-14T15:40:33.205Z,10.50
2018-03-14T15:43:00.749Z,10.40
2018-03-14T15:45:28.262Z,10.40
2018-03-14T15:47:55.804Z,10.30
2018-03-14T15:50:24.080Z,10.20
2018-03-14T15:52:52.383Z,10.10
2018-03-14T15:55:19.893Z,10.10
2018-03-14T15:57:48.205Z,10.20
2018-03-14T16:00:15.984Z,10.20
2018-03-14T16:02:43.525Z,10.10
2018-03-14T16:05:11.041Z,10.10
2018-03-14T16:07:40.089Z,10.00
2018-03-14T16:10:07.849Z,10.00
2018-03-14T16:12:35.402Z,9.80
2018-03-14T16:15:02.909Z,9.90
2018-03-14T16:17:31.548Z,9.90
2018-03-14T16:19:59.056Z,9.90
2018-03-14T16:22:27.364Z,9.90
2018-03-14T16:24:54.873Z,9.80
2018-03-14T16:27:22.424Z,9.80
2018-03-14T16:29:50.248Z,9.70
2018-03-14T16:32:17.788Z,9.70
2018-03-14T16:34:45.297Z,9.60
2018-03-14T16:37:12.870Z,9.50
2018-03-14T16:39:40.361Z,9.50
2018-03-14T16:42:07.933Z,9.60
2018-03-14T16:44:35.481Z,9.60
2018-03-14T16:47:03.044Z,9.50
2018-03-14T16:49:30.554Z,9.40
2018-03-14T16:51:58.841Z,9.40
2018-03-14T16:54:26.384Z,9.40
2018-03-14T16:56:54.656Z,9.30
2018-03-14T16:59:22.957Z,9.20
2018-03-14T17:01:50.472Z,9.20
2018-03-14T17:04:18.006Z,9.30
2018-03-14T17:06:45.522Z,9.20
2018-03-14T17:09:13.067Z,9.20
2018-03-14T17:11:40.571Z,9.10
2018-03-14T17:14:08.105Z,9.00
2018-03-14T17:16:35.612Z,9.00
2018-03-14T17:19:03.223Z,9.10
2018-03-14T17:21:30.756Z,9.10
2018-03-14T17:23:58.284Z,9.10
2018-03-14T17:26:26.609Z,8.70
2018-03-14T17:28:55.102Z,8.60
2018-03-14T17:31:22.612Z,8.60
2018-03-14T17:33:50.917Z,8.70
2018-03-14T17:36:18.430Z,8.70
2018-03-14T17:38:46.729Z,8.50
2018-03-14T17:41:15.008Z,8.20
2018-03-14T17:43:42.576Z,8.20
2018-03-14T17:46:10.098Z,7.90
2018-03-14T17:48:38.413Z,7.90
2018-03-14T17:51:05.927Z,7.90
2018-03-14T17:53:34.245Z,8.20
2018-03-14T17:56:01.809Z,8.20
2018-03-14T17:58:29.369Z,7.80
2018-03-14T18:00:56.916Z,7.50
2018-03-14T18:03:24.444Z,7.30
2018-03-14T18:05:51.961Z,7.50
2018-03-14T18:08:19.726Z,7.20
2018-03-14T18:10:47.276Z,7.00
2018-03-14T18:13:14.843Z,6.80
2018-03-14T18:15:42.357Z,6.70
2018-03-14T18:18:09.981Z,6.60
2018-03-14T18:20:38.293Z,7.20
2018-03-14T18:23:05.831Z,7.20
2018-03-14T18:25:33.385Z,7.10
2018-03-14T18:28:00.918Z,7.10
2018-03-14T18:30:29.217Z,7.10
2018-03-14T18:32:57.012Z,7.00
2018-03-14T18:35:24.521Z,7.00
2018-03-14T18:37:52.077Z,6.90
2018-03-14T18:40:19.596Z,7.00
2018-03-14T18:42:47.165Z,7.10
2018-03-14T18:45:14.672Z,7.10
2018-03-14T18:47:42.212Z,7.00
2018-03-14T18:50:09.737Z,6.90
2018-03-14T18:52:38.046Z,6.50
2018-03-14T18:55:05.616Z,6.50
2018-03-14T18:57:33.166Z,6.40
2018-03-14T19:00:00.681Z,6.50
2018-03-14T19:02:28.956Z,6.70
2018-03-14T19:04:57.642Z,6.80
2018-03-14T19:07:25.931Z,6.80
2018-03-14T19:09:53.646Z,6.70
2018-03-14T19:12:21.969Z,6.60
2018-03-14T19:14:49.540Z,6.60
2018-03-14T19:17:17.057Z,6.60
2018-03-14T19:19:45.376Z,6.60
2018-03-14T19:22:13.754Z,6.50
2018-03-14T19:24:41.629Z,6.50
2018-03-14T19:27:09.393Z,6.50
2018-03-14T19:29:37.253Z,6.40
2018-03-14T19:32:04.769Z,6.30
2018-03-14T19:34:32.325Z,6.40
2018-03-14T19:37:00.610Z,6.30
2018-03-14T19:39:28.142Z,6.30
2018-03-14T19:41:56.440Z,6.20
2018-03-14T19:44:23.992Z,6.20
2018-03-14T19:46:51.546Z,6.10
2018-03-14T19:49:19.090Z,6.10
2018-03-14T19:51:47.368Z,6.10
2018-03-14T19:54:15.676Z,6.00
2018-03-14T19:56:43.185Z,6.00
2018-03-14T19:59:10.736Z,6.10
2018-03-14T20:01:38.246Z,6.10
2018-03-14T20:04:05.813Z,6.00
2018-03-14T20:06:33.577Z,6.00
2018-03-14T20:09:01.369Z,5.90
2018-03-14T20:11:28.778Z,5.90
2018-03-14T20:13:56.317Z,5.70
2018-03-14T20:16:23.836Z,5.70
2018-03-14T20:18:51.392Z,5.80
2018-03-14T20:21:18.910Z,5.60
2018-03-14T20:23:46.449Z,5.60
2018-03-14T20:26:14.019Z,5.50
2018-03-14T20:28:41.553Z,5.60
2018-03-14T20:31:09.829Z,5.60
2018-03-14T20:33:37.368Z,5.50
2018-03-14T20:36:05.645Z,5.50
2018-03-14T20:38:33.944Z,5.50
2018-03-14T20:41:01.463Z,5.40
2018-03-14T20:43:29.772Z,5.40
2018-03-14T20:45:57.285Z,5.40
2018-03-14T20:48:24.835Z,5.30
2018-03-14T20:50:52.522Z,5.40
2018-03-14T20:53:20.861Z,5.30
2018-03-14T20:55:48.373Z,5.30
2018-03-14T20:58:15.920Z,5.30
2018-03-14T21:00:43.437Z,5.20
2018-03-14T21:03:11.740Z,5.10
2018-03-14T21:05:40.061Z,5.10
2018-03-14T21:08:07.573Z,5.10
2018-03-14T21:10:35.901Z,4.90
2018-03-14T21:13:03.418Z,4.90
2018-03-14T21:15:30.969Z,4.80
2018-03-14T21:17:58.493Z,4.70
2018-03-14T21:20:26.040Z,4.50
2018-03-14T21:22:53.554Z,4.40
2018-03-14T21:25:21.095Z,4.30
2018-03-14T21:27:48.609Z,4.10
2018-03-14T21:30:16.147Z,4.50
2018-03-14T21:32:43.963Z,4.40
2018-03-14T21:35:11.756Z,4.50
2018-03-14T21:37:40.112Z,4.80
2018-03-14T21:40:07.913Z,4.70
2018-03-14T21:42:35.572Z,4.80
2018-03-14T21:45:03.130Z,4.80
2018-03-14T21:47:30.640Z,4.80
2018-03-14T21:49:58.153Z,4.80
2018-03-14T21:52:25.697Z,4.80
2018-03-14T21:54:53.232Z,4.80
2018-03-14T21:57:20.785Z,4.70
2018-03-14T21:59:48.307Z,4.70
2018-03-14T22:02:16.613Z,4.60
2018-03-14T22:04:44.493Z,4.60
2018-03-14T22:07:12.229Z,4.60
2018-03-14T22:09:40.573Z,4.60
2018-03-14T22:12:08.905Z,4.60
2018-03-14T22:14:36.446Z,4.60
2018-03-14T22:17:04.220Z,4.50
2018-03-14T22:19:31.733Z,4.40
2018-03-14T22:22:00.048Z,4.50
2018-03-14T22:24:27.561Z,4.50
2018-03-14T22:26:55.926Z,4.50
2018-03-14T22:29:23.448Z,4.50
2018-03-14T22:31:50.992Z,4.50
2018-03-14T22:34:18.501Z,4.40
2018-03-14T22:36:46.808Z,4.50
2018-03-14T22:39:14.333Z,4.40
2018-03-14T22:41:42.612Z,4.20
2018-03-14T22:44:10.954Z,4.10
2018-03-14T22:46:38.461Z,4.10
2018-03-14T22:49:05.997Z,4.10
2018-03-14T22:51:34.277Z,3.90
2018-03-14T22:54:02.637Z,3.90
2018-03-14T22:56:30.161Z,3.90
2018-03-14T22:58:58.024Z,3.90
2018-03-14T23:01:25.541Z,3.90
2018-03-14T23:03:53.077Z,3.90
2018-03-14T23:06:21.423Z,4.30
2018-03-14T23:08:48.961Z,4.30
2018-03-14T23:11:16.717Z,4.20
2018-03-14T23:13:44.264Z,4.20
2018-03-14T23:16:11.777Z,4.20
2018-03-14T23:18:40.521Z,4.20
2018-03-14T23:21:08.032Z,4.20
2018-03-14T23:23:36.333Z,4.10
2018-03-14T23:26:03.870Z,4.10
2018-03-14T23:28:31.387Z,4.00
2018-03-14T23:30:58.925Z,4.00
2018-03-14T23:33:26.432Z,4.00
2018-03-14T23:35:55.057Z,3.80
2018-03-14T23:38:22.823Z,3.80
2018-03-14T23:40:50.398Z,3.80
2018-03-14T23:43:17.912Z,3.70
2018-03-14T23:45:45.449Z,3.60
2018-03-14T23:48:12.956Z,3.70
2018-03-14T23:50:40.497Z,3.70
2018-03-14T23:53:08.013Z,3.80
2018-03-14T23:55:35.549Z,3.80
2018-03-14T23:58:03.065Z,3.70
